sensor_id;sensor_type;location;lat;lon;timestamp;pressure;altitude;pressure_sealevel;temperature
14666;BMP280;7420;53.574;10.040;2023-07-13T00:01:42;54229.28;;;-136.87
14666;BMP280;7420;53.574;10.040;2023-07-13T00:04:08;54225.19;;;-136.87
14666;BMP280;7420;53.574;10.040;2023-07-13T00:06:33;54227.25;;;-136.87
14666;BMP280;7420;53.574;10.040;2023-07-13T00:09:00;54227.25;;;-136.87
14666;BMP280;7420;53.574;10.040;2023-07-13T00:11:26;54227.25;;;-136.87
14666;BMP280;7420;53.574;10.040;2023-07-13T00:13:52;54227.25;;;-136.87
14666;BMP280;7420;53.574;10.040;2023-07-13T00:16:17;54225.19;;;-136.87
14666;BMP280;7420;53.574;10.040;2023-07-13T00:18:44;54227.25;;;-136.87
14666;BMP280;7420;53.574;10.040;2023-07-13T00:21:11;54227.25;;;-136.87
14666;BMP280;7420;53.574;10.040;2023-07-13T00:23:38;54227.25;;;-136.87
14666;BMP280;7420;53.574;10.040;2023-07-13T00:26:06;54225.19;;;-136.87
14666;BMP280;7420;53.574;10.040;2023-07-13T00:28:32;54231.31;;;-136.87
14666;BMP280;7420;53.574;10.040;2023-07-13T00:30:58;54227.25;;;-136.87
14666;BMP280;7420;53.574;10.040;2023-07-13T00:33:23;54227.25;;;-136.87
14666;BMP280;7420;53.574;10.040;2023-07-13T00:35:49;54229.28;;;-136.87
14666;BMP280;7420;53.574;10.040;2023-07-13T00:38:15;54227.25;;;-136.87
14666;BMP280;7420;53.574;10.040;2023-07-13T00:40:41;54229.28;;;-136.87
14666;BMP280;7420;53.574;10.040;2023-07-13T00:43:13;54225.19;;;-136.87
14666;BMP280;7420;53.574;10.040;2023-07-13T00:48:12;54225.19;;;-136.87
14666;BMP280;7420;53.574;10.040;2023-07-13T00:50:38;54227.25;;;-136.87
14666;BMP280;7420;53.574;10.040;2023-07-13T00:53:04;54225.19;;;-136.87
14666;BMP280;7420;53.574;10.040;2023-07-13T00:55:29;54229.28;;;-136.87
14666;BMP280;7420;53.574;10.040;2023-07-13T00:57:55;54225.19;;;-136.87
14666;BMP280;7420;53.574;10.040;2023-07-13T01:00:21;54225.19;;;-136.87
14666;BMP280;7420;53.574;10.040;2023-07-13T01:02:48;54227.25;;;-136.87
14666;BMP280;7420;53.574;10.040;2023-07-13T01:05:18;54225.19;;;-136.87
14666;BMP280;7420;53.574;10.040;2023-07-13T01:07:45;54227.25;;;-136.87
14666;BMP280;7420;53.574;10.040;2023-07-13T01:10:13;54227.25;;;-136.87
14666;BMP280;7420;53.574;10.040;2023-07-13T01:12:38;54229.28;;;-136.87
14666;BMP280;7420;53.574;10.040;2023-07-13T01:15:05;54227.25;;;-136.87
14666;BMP280;7420;53.574;10.040;2023-07-13T01:17:33;54225.19;;;-136.87
14666;BMP280;7420;53.574;10.040;2023-07-13T01:19:59;54229.28;;;-136.87
14666;BMP280;7420;53.574;10.040;2023-07-13T01:22:26;54229.28;;;-136.87
14666;BMP280;7420;53.574;10.040;2023-07-13T01:24:53;54231.31;;;-136.87
14666;BMP280;7420;53.574;10.040;2023-07-13T01:27:24;54227.25;;;-136.87
14666;BMP280;7420;53.574;10.040;2023-07-13T01:29:51;54225.19;;;-136.87
14666;BMP280;7420;53.574;10.040;2023-07-13T01:32:21;54225.19;;;-136.87
14666;BMP280;7420;53.574;10.040;2023-07-13T01:34:52;54225.19;;;-136.87
14666;BMP280;7420;53.574;10.040;2023-07-13T01:37:19;54227.25;;;-136.87
14666;BMP280;7420;53.574;10.040;2023-07-13T01:39:45;54227.25;;;-136.87
14666;BMP280;7420;53.574;10.040;2023-07-13T01:42:11;54225.19;;;-136.87
14666;BMP280;7420;53.574;10.040;2023-07-13T01:44:37;54227.25;;;-136.87
14666;BMP280;7420;53.574;10.040;2023-07-13T01:47:02;54227.25;;;-136.87
14666;BMP280;7420;53.574;10.040;2023-07-13T01:49:28;54227.25;;;-136.87
14666;BMP280;7420;53.574;10.040;2023-07-13T01:51:53;54231.31;;;-136.87
14666;BMP280;7420;53.574;10.040;2023-07-13T01:54:19;54225.19;;;-136.87
14666;BMP280;7420;53.574;10.040;2023-07-13T01:56:44;54229.28;;;-136.87
14666;BMP280;7420;53.574;10.040;2023-07-13T01:59:09;54229.28;;;-136.87
14666;BMP280;7420;53.574;10.040;2023-07-13T02:01:35;54225.19;;;-136.87
14666;BMP280;7420;53.574;10.040;2023-07-13T02:04:00;54227.25;;;-136.87
14666;BMP280;7420;53.574;10.040;2023-07-13T02:06:25;54225.19;;;-136.87
14666;BMP280;7420;53.574;10.040;2023-07-13T02:08:51;54229.28;;;-136.87
14666;BMP280;7420;53.574;10.040;2023-07-13T02:11:16;54227.25;;;-136.87
14666;BMP280;7420;53.574;10.040;2023-07-13T02:13:42;54229.28;;;-136.87
14666;BMP280;7420;53.574;10.040;2023-07-13T02:16:07;54227.25;;;-136.87
14666;BMP280;7420;53.574;10.040;2023-07-13T02:18:32;54229.28;;;-136.87
14666;BMP280;7420;53.574;10.040;2023-07-13T02:20:58;54225.19;;;-136.87
14666;BMP280;7420;53.574;10.040;2023-07-13T02:23:23;54227.25;;;-136.87
14666;BMP280;7420;53.574;10.040;2023-07-13T02:25:49;54225.19;;;-136.87
14666;BMP280;7420;53.574;10.040;2023-07-13T02:28:14;54225.19;;;-136.87
14666;BMP280;7420;53.574;10.040;2023-07-13T02:30:39;54225.19;;;-136.87
14666;BMP280;7420;53.574;10.040;2023-07-13T02:33:05;54227.25;;;-136.87
14666;BMP280;7420;53.574;10.040;2023-07-13T02:35:31;54225.19;;;-136.87
14666;BMP280;7420;53.574;10.040;2023-07-13T02:37:56;54225.19;;;-136.87
14666;BMP280;7420;53.574;10.040;2023-07-13T02:40:21;54225.19;;;-136.87
14666;BMP280;7420;53.574;10.040;2023-07-13T02:42:47;54227.25;;;-136.87
14666;BMP280;7420;53.574;10.040;2023-07-13T02:45:12;54229.28;;;-136.87
14666;BMP280;7420;53.574;10.040;2023-07-13T02:47:40;54225.19;;;-136.87
14666;BMP280;7420;53.574;10.040;2023-07-13T02:50:06;54225.19;;;-136.87
14666;BMP280;7420;53.574;10.040;2023-07-13T02:52:31;54227.25;;;-136.87
14666;BMP280;7420;53.574;10.040;2023-07-13T02:54:57;54229.28;;;-136.87
14666;BMP280;7420;53.574;10.040;2023-07-13T02:57:22;54227.25;;;-136.87
14666;BMP280;7420;53.574;10.040;2023-07-13T02:59:47;54229.28;;;-136.87
14666;BMP280;7420;53.574;10.040;2023-07-13T03:02:13;54229.28;;;-136.87
14666;BMP280;7420;53.574;10.040;2023-07-13T03:04:38;54227.25;;;-136.87
14666;BMP280;7420;53.574;10.040;2023-07-13T03:07:06;54229.28;;;-136.87
14666;BMP280;7420;53.574;10.040;2023-07-13T03:09:33;54225.19;;;-136.87
14666;BMP280;7420;53.574;10.040;2023-07-13T03:11:59;54225.19;;;-136.87
14666;BMP280;7420;53.574;10.040;2023-07-13T03:14:24;54227.25;;;-136.87
14666;BMP280;7420;53.574;10.040;2023-07-13T03:16:50;54227.25;;;-136.87
14666;BMP280;7420;53.574;10.040;2023-07-13T03:19:15;54227.25;;;-136.87
14666;BMP280;7420;53.574;10.040;2023-07-13T03:21:40;54229.28;;;-136.87
14666;BMP280;7420;53.574;10.040;2023-07-13T03:24:06;54225.19;;;-136.87
14666;BMP280;7420;53.574;10.040;2023-07-13T03:26:32;54227.25;;;-136.87
14666;BMP280;7420;53.574;10.040;2023-07-13T03:28:57;54225.19;;;-136.87
14666;BMP280;7420;53.574;10.040;2023-07-13T03:31:26;54227.25;;;-136.87
14666;BMP280;7420;53.574;10.040;2023-07-13T03:33:53;54225.19;;;-136.87
14666;BMP280;7420;53.574;10.040;2023-07-13T03:36:22;54225.19;;;-136.87
14666;BMP280;7420;53.574;10.040;2023-07-13T03:38:55;54225.19;;;-136.87
14666;BMP280;7420;53.574;10.040;2023-07-13T03:41:22;54227.25;;;-136.87
14666;BMP280;7420;53.574;10.040;2023-07-13T03:43:48;54227.25;;;-136.87
14666;BMP280;7420;53.574;10.040;2023-07-13T03:46:14;54229.28;;;-136.87
14666;BMP280;7420;53.574;10.040;2023-07-13T03:48:44;54223.16;;;-136.87
14666;BMP280;7420;53.574;10.040;2023-07-13T03:51:11;54227.25;;;-136.87
14666;BMP280;7420;53.574;10.040;2023-07-13T03:53:39;54229.28;;;-136.87
14666;BMP280;7420;53.574;10.040;2023-07-13T03:56:05;54225.19;;;-136.87
14666;BMP280;7420;53.574;10.040;2023-07-13T03:58:31;54225.19;;;-136.87
14666;BMP280;7420;53.574;10.040;2023-07-13T04:00:58;54223.16;;;-136.87
14666;BMP280;7420;53.574;10.040;2023-07-13T04:03:25;54223.16;;;-136.87
14666;BMP280;7420;53.574;10.040;2023-07-13T04:05:50;54225.19;;;-136.87
14666;BMP280;7420;53.574;10.040;2023-07-13T04:08:16;54225.19;;;-136.87
14666;BMP280;7420;53.574;10.040;2023-07-13T04:10:42;54225.19;;;-136.87
14666;BMP280;7420;53.574;10.040;2023-07-13T04:13:08;54225.19;;;-136.87
14666;BMP280;7420;53.574;10.040;2023-07-13T04:15:33;54229.28;;;-136.87
14666;BMP280;7420;53.574;10.040;2023-07-13T04:17:59;54223.16;;;-136.87
14666;BMP280;7420;53.574;10.040;2023-07-13T04:20:25;54225.19;;;-136.87
14666;BMP280;7420;53.574;10.040;2023-07-13T04:22:51;54225.19;;;-136.87
14666;BMP280;7420;53.574;10.040;2023-07-13T04:25:18;54225.19;;;-136.87
14666;BMP280;7420;53.574;10.040;2023-07-13T04:27:44;54227.25;;;-136.87
14666;BMP280;7420;53.574;10.040;2023-07-13T04:30:09;54227.25;;;-136.87
14666;BMP280;7420;53.574;10.040;2023-07-13T04:32:34;54225.19;;;-136.87
14666;BMP280;7420;53.574;10.040;2023-07-13T04:35:00;54225.19;;;-136.87
14666;BMP280;7420;53.574;10.040;2023-07-13T04:37:26;54225.19;;;-136.87
14666;BMP280;7420;53.574;10.040;2023-07-13T04:39:52;54223.16;;;-136.87
14666;BMP280;7420;53.574;10.040;2023-07-13T04:42:18;54225.19;;;-136.87
14666;BMP280;7420;53.574;10.040;2023-07-13T04:44:50;54225.19;;;-136.87
14666;BMP280;7420;53.574;10.040;2023-07-13T04:47:16;54225.19;;;-136.87
14666;BMP280;7420;53.574;10.040;2023-07-13T04:49:42;54227.25;;;-136.87
14666;BMP280;7420;53.574;10.040;2023-07-13T04:52:07;54229.28;;;-136.87
14666;BMP280;7420;53.574;10.040;2023-07-13T04:54:33;54225.19;;;-136.87
14666;BMP280;7420;53.574;10.040;2023-07-13T04:56:59;54225.19;;;-136.87
14666;BMP280;7420;53.574;10.040;2023-07-13T04:59:24;54225.19;;;-136.87
14666;BMP280;7420;53.574;10.040;2023-07-13T05:01:50;54223.16;;;-136.87
14666;BMP280;7420;53.574;10.040;2023-07-13T05:04:15;54227.25;;;-136.87
14666;BMP280;7420;53.574;10.040;2023-07-13T05:06:41;54223.16;;;-136.87
14666;BMP280;7420;53.574;10.040;2023-07-13T05:09:06;54221.13;;;-136.87
14666;BMP280;7420;53.574;10.040;2023-07-13T05:11:32;54221.13;;;-136.87
14666;BMP280;7420;53.574;10.040;2023-07-13T05:13:58;54223.16;;;-136.87
14666;BMP280;7420;53.574;10.040;2023-07-13T05:16:23;54225.19;;;-136.87
14666;BMP280;7420;53.574;10.040;2023-07-13T05:18:48;54223.16;;;-136.87
14666;BMP280;7420;53.574;10.040;2023-07-13T05:21:14;54223.16;;;-136.87
14666;BMP280;7420;53.574;10.040;2023-07-13T05:23:39;54225.19;;;-136.87
14666;BMP280;7420;53.574;10.040;2023-07-13T05:26:07;54225.19;;;-136.87
14666;BMP280;7420;53.574;10.040;2023-07-13T05:31:17;54225.19;;;-136.87
14666;BMP280;7420;53.574;10.040;2023-07-13T05:33:43;54227.25;;;-136.87
14666;BMP280;7420;53.574;10.040;2023-07-13T05:36:08;54227.25;;;-136.87
14666;BMP280;7420;53.574;10.040;2023-07-13T05:38:34;54223.16;;;-136.87
14666;BMP280;7420;53.574;10.040;2023-07-13T05:40:59;54225.19;;;-136.87
14666;BMP280;7420;53.574;10.040;2023-07-13T05:43:25;54225.19;;;-136.87
14666;BMP280;7420;53.574;10.040;2023-07-13T05:45:55;54225.19;;;-136.87
14666;BMP280;7420;53.574;10.040;2023-07-13T05:48:21;54225.19;;;-136.87
14666;BMP280;7420;53.574;10.040;2023-07-13T05:50:46;54225.19;;;-136.87
14666;BMP280;7420;53.574;10.040;2023-07-13T05:53:12;54223.16;;;-136.87
14666;BMP280;7420;53.574;10.040;2023-07-13T05:55:42;54223.16;;;-136.87
14666;BMP280;7420;53.574;10.040;2023-07-13T05:58:07;54225.19;;;-136.87
14666;BMP280;7420;53.574;10.040;2023-07-13T06:00:33;54225.19;;;-136.87
14666;BMP280;7420;53.574;10.040;2023-07-13T06:02:58;54225.19;;;-136.87
14666;BMP280;7420;53.574;10.040;2023-07-13T06:05:24;54229.28;;;-136.87
14666;BMP280;7420;53.574;10.040;2023-07-13T06:07:49;54227.25;;;-136.87
14666;BMP280;7420;53.574;10.040;2023-07-13T06:10:15;54225.19;;;-136.87
14666;BMP280;7420;53.574;10.040;2023-07-13T06:12:40;54227.25;;;-136.87
14666;BMP280;7420;53.574;10.040;2023-07-13T06:15:06;54225.19;;;-136.87
14666;BMP280;7420;53.574;10.040;2023-07-13T06:17:31;54227.25;;;-136.87
14666;BMP280;7420;53.574;10.040;2023-07-13T06:19:57;54225.19;;;-136.87
14666;BMP280;7420;53.574;10.040;2023-07-13T06:22:22;54227.25;;;-136.87
14666;BMP280;7420;53.574;10.040;2023-07-13T06:24:47;54225.19;;;-136.87
14666;BMP280;7420;53.574;10.040;2023-07-13T06:27:13;54229.28;;;-136.87
14666;BMP280;7420;53.574;10.040;2023-07-13T06:29:38;54225.19;;;-136.87
14666;BMP280;7420;53.574;10.040;2023-07-13T06:32:05;54225.19;;;-136.87
14666;BMP280;7420;53.574;10.040;2023-07-13T06:34:30;54225.19;;;-136.87
14666;BMP280;7420;53.574;10.040;2023-07-13T06:36:55;54227.25;;;-136.87
14666;BMP280;7420;53.574;10.040;2023-07-13T06:39:21;54227.25;;;-136.87
14666;BMP280;7420;53.574;10.040;2023-07-13T06:41:46;54225.19;;;-136.87
14666;BMP280;7420;53.574;10.040;2023-07-13T06:44:11;54223.16;;;-136.87
14666;BMP280;7420;53.574;10.040;2023-07-13T06:46:37;54227.25;;;-136.87
14666;BMP280;7420;53.574;10.040;2023-07-13T06:49:02;54223.16;;;-136.87
14666;BMP280;7420;53.574;10.040;2023-07-13T06:51:28;54229.28;;;-136.87
14666;BMP280;7420;53.574;10.040;2023-07-13T06:53:53;54227.25;;;-136.87
14666;BMP280;7420;53.574;10.040;2023-07-13T06:56:19;54223.16;;;-136.87
14666;BMP280;7420;53.574;10.040;2023-07-13T06:58:44;54225.19;;;-136.87
14666;BMP280;7420;53.574;10.040;2023-07-13T07:01:10;54227.25;;;-136.87
14666;BMP280;7420;53.574;10.040;2023-07-13T07:03:35;54225.19;;;-136.87
14666;BMP280;7420;53.574;10.040;2023-07-13T07:06:16;54223.16;;;-136.87
14666;BMP280;7420;53.574;10.040;2023-07-13T07:08:42;54227.25;;;-136.87
14666;BMP280;7420;53.574;10.040;2023-07-13T07:11:16;54225.19;;;-136.87
14666;BMP280;7420;53.574;10.040;2023-07-13T07:13:42;54225.19;;;-136.87
14666;BMP280;7420;53.574;10.040;2023-07-13T07:16:07;54225.19;;;-136.87
14666;BMP280;7420;53.574;10.040;2023-07-13T07:18:34;54225.19;;;-136.87
14666;BMP280;7420;53.574;10.040;2023-07-13T07:20:59;54223.16;;;-136.87
14666;BMP280;7420;53.574;10.040;2023-07-13T07:23:25;54225.19;;;-136.87
14666;BMP280;7420;53.574;10.040;2023-07-13T07:25:50;54225.19;;;-136.87
14666;BMP280;7420;53.574;10.040;2023-07-13T07:28:17;54227.25;;;-136.87
14666;BMP280;7420;53.574;10.040;2023-07-13T07:30:47;54227.25;;;-136.87
14666;BMP280;7420;53.574;10.040;2023-07-13T07:33:12;54229.28;;;-136.87
14666;BMP280;7420;53.574;10.040;2023-07-13T07:35:38;54225.19;;;-136.87
14666;BMP280;7420;53.574;10.040;2023-07-13T07:38:03;54225.19;;;-136.87
14666;BMP280;7420;53.574;10.040;2023-07-13T07:40:29;54225.19;;;-136.87
14666;BMP280;7420;53.574;10.040;2023-07-13T07:42:54;54225.19;;;-136.87
14666;BMP280;7420;53.574;10.040;2023-07-13T07:45:21;54225.19;;;-136.87
14666;BMP280;7420;53.574;10.040;2023-07-13T07:47:46;54225.19;;;-136.87
14666;BMP280;7420;53.574;10.040;2023-07-13T07:50:12;54225.19;;;-136.87
14666;BMP280;7420;53.574;10.040;2023-07-13T07:52:38;54227.25;;;-136.87
14666;BMP280;7420;53.574;10.040;2023-07-13T07:55:05;54223.16;;;-136.87
14666;BMP280;7420;53.574;10.040;2023-07-13T07:57:31;54225.19;;;-136.87
14666;BMP280;7420;53.574;10.040;2023-07-13T07:59:56;54225.19;;;-136.87
14666;BMP280;7420;53.574;10.040;2023-07-13T08:02:22;54225.19;;;-136.87
14666;BMP280;7420;53.574;10.040;2023-07-13T08:04:47;54225.19;;;-136.87
14666;BMP280;7420;53.574;10.040;2023-07-13T08:07:12;54223.16;;;-136.87
14666;BMP280;7420;53.574;10.040;2023-07-13T08:09:38;54223.16;;;-136.87
14666;BMP280;7420;53.574;10.040;2023-07-13T08:12:04;54227.25;;;-136.87
14666;BMP280;7420;53.574;10.040;2023-07-13T08:14:29;54223.16;;;-136.87
14666;BMP280;7420;53.574;10.040;2023-07-13T08:16:55;54227.25;;;-136.87
14666;BMP280;7420;53.574;10.040;2023-07-13T08:19:20;54227.25;;;-136.87
14666;BMP280;7420;53.574;10.040;2023-07-13T08:21:45;54225.19;;;-136.87
14666;BMP280;7420;53.574;10.040;2023-07-13T08:24:13;54229.28;;;-136.87
14666;BMP280;7420;53.574;10.040;2023-07-13T08:26:39;54225.19;;;-136.87
14666;BMP280;7420;53.574;10.040;2023-07-13T08:29:04;54225.19;;;-136.87
14666;BMP280;7420;53.574;10.040;2023-07-13T08:31:30;54223.16;;;-136.87
14666;BMP280;7420;53.574;10.040;2023-07-13T08:33:55;54225.19;;;-136.87
14666;BMP280;7420;53.574;10.040;2023-07-13T08:36:20;54225.19;;;-136.87
14666;BMP280;7420;53.574;10.040;2023-07-13T08:38:46;54223.16;;;-136.87
14666;BMP280;7420;53.574;10.040;2023-07-13T08:41:17;54227.25;;;-136.87
14666;BMP280;7420;53.574;10.040;2023-07-13T08:43:47;54221.13;;;-136.87
14666;BMP280;7420;53.574;10.040;2023-07-13T08:48:58;54227.25;;;-136.87
14666;BMP280;7420;53.574;10.040;2023-07-13T08:51:44;54225.19;;;-136.87
14666;BMP280;7420;53.574;10.040;2023-07-13T08:54:37;54227.25;;;-136.87
14666;BMP280;7420;53.574;10.040;2023-07-13T08:57:12;54225.19;;;-136.87
14666;BMP280;7420;53.574;10.040;2023-07-13T08:59:38;54225.19;;;-136.87
14666;BMP280;7420;53.574;10.040;2023-07-13T09:05:00;54223.16;;;-136.87
14666;BMP280;7420;53.574;10.040;2023-07-13T09:07:40;54225.19;;;-136.87
14666;BMP280;7420;53.574;10.040;2023-07-13T09:10:30;54225.19;;;-136.87
14666;BMP280;7420;53.574;10.040;2023-07-13T09:15:51;54225.19;;;-136.87
14666;BMP280;7420;53.574;10.040;2023-07-13T09:18:37;54221.13;;;-136.87
14666;BMP280;7420;53.574;10.040;2023-07-13T09:21:10;54225.19;;;-136.87
14666;BMP280;7420;53.574;10.040;2023-07-13T09:23:38;54227.25;;;-136.87
14666;BMP280;7420;53.574;10.040;2023-07-13T09:26:10;54221.13;;;-136.87
14666;BMP280;7420;53.574;10.040;2023-07-13T09:28:44;54227.25;;;-136.87
14666;BMP280;7420;53.574;10.040;2023-07-13T09:31:20;54225.19;;;-136.87
14666;BMP280;7420;53.574;10.040;2023-07-13T09:33:48;54223.16;;;-136.87
14666;BMP280;7420;53.574;10.040;2023-07-13T09:36:33;54227.25;;;-136.87
14666;BMP280;7420;53.574;10.040;2023-07-13T09:39:23;54225.19;;;-136.87
14666;BMP280;7420;53.574;10.040;2023-07-13T09:42:16;54225.19;;;-136.87
14666;BMP280;7420;53.574;10.040;2023-07-13T09:45:00;54223.16;;;-136.87
14666;BMP280;7420;53.574;10.040;2023-07-13T09:47:29;54225.19;;;-136.87
14666;BMP280;7420;53.574;10.040;2023-07-13T09:52:21;54225.19;;;-136.87
14666;BMP280;7420;53.574;10.040;2023-07-13T09:54:49;54229.28;;;-136.87
14666;BMP280;7420;53.574;10.040;2023-07-13T09:57:18;54229.28;;;-136.87
14666;BMP280;7420;53.574;10.040;2023-07-13T09:59:46;54227.25;;;-136.87
14666;BMP280;7420;53.574;10.040;2023-07-13T10:02:33;54229.28;;;-136.87
14666;BMP280;7420;53.574;10.040;2023-07-13T10:05:09;54229.28;;;-136.87
14666;BMP280;7420;53.574;10.040;2023-07-13T10:07:41;54227.25;;;-136.87
14666;BMP280;7420;53.574;10.040;2023-07-13T10:10:18;54231.31;;;-136.87
14666;BMP280;7420;53.574;10.040;2023-07-13T10:12:45;54229.28;;;-136.87
14666;BMP280;7420;53.574;10.040;2023-07-13T10:15:22;54227.25;;;-136.87
14666;BMP280;7420;53.574;10.040;2023-07-13T10:17:49;54227.25;;;-136.87
14666;BMP280;7420;53.574;10.040;2023-07-13T10:20:16;54229.28;;;-136.87
14666;BMP280;7420;53.574;10.040;2023-07-13T10:22:45;54229.28;;;-136.87
14666;BMP280;7420;53.574;10.040;2023-07-13T10:25:21;54231.31;;;-136.87
14666;BMP280;7420;53.574;10.040;2023-07-13T10:27:49;54233.38;;;-136.87
14666;BMP280;7420;53.574;10.040;2023-07-13T10:30:19;54231.31;;;-136.87
14666;BMP280;7420;53.574;10.040;2023-07-13T10:32:46;54237.44;;;-136.87
14666;BMP280;7420;53.574;10.040;2023-07-13T10:35:15;54237.44;;;-136.87
14666;BMP280;7420;53.574;10.040;2023-07-13T10:38:04;54237.44;;;-136.87
14666;BMP280;7420;53.574;10.040;2023-07-13T10:40:52;54237.44;;;-136.87
14666;BMP280;7420;53.574;10.040;2023-07-13T10:43:23;54237.44;;;-136.87
14666;BMP280;7420;53.574;10.040;2023-07-13T10:45:50;54241.53;;;-136.87
14666;BMP280;7420;53.574;10.040;2023-07-13T10:48:17;54237.44;;;-136.87
14666;BMP280;7420;53.574;10.040;2023-07-13T10:50:44;54245.63;;;-136.87
14666;BMP280;7420;53.574;10.040;2023-07-13T10:53:20;54239.50;;;-136.87
14666;BMP280;7420;53.574;10.040;2023-07-13T11:01:11;54241.53;;;-136.87
14666;BMP280;7420;53.574;10.040;2023-07-13T11:06:15;54235.41;;;-136.87
14666;BMP280;7420;53.574;10.040;2023-07-13T11:18:51;54241.53;;;-136.87
14666;BMP280;7420;53.574;10.040;2023-07-13T11:21:22;54243.59;;;-136.87
14666;BMP280;7420;53.574;10.040;2023-07-13T11:24:12;54241.53;;;-136.87
14666;BMP280;7420;53.574;10.040;2023-07-13T11:29:36;54241.53;;;-136.87
14666;BMP280;7420;53.574;10.040;2023-07-13T11:32:22;54245.63;;;-136.87
14666;BMP280;7420;53.574;10.040;2023-07-13T11:34:49;54243.59;;;-136.87
14666;BMP280;7420;53.574;10.040;2023-07-13T11:37:16;54241.53;;;-136.87
14666;BMP280;7420;53.574;10.040;2023-07-13T11:39:44;54239.50;;;-136.87
14666;BMP280;7420;53.574;10.040;2023-07-13T11:42:16;54243.59;;;-136.87
14666;BMP280;7420;53.574;10.040;2023-07-13T11:44:44;54241.53;;;-136.87
14666;BMP280;7420;53.574;10.040;2023-07-13T11:47:14;54241.53;;;-136.87
14666;BMP280;7420;53.574;10.040;2023-07-13T11:49:44;54241.53;;;-136.87
14666;BMP280;7420;53.574;10.040;2023-07-13T11:52:14;54245.63;;;-136.87
14666;BMP280;7420;53.574;10.040;2023-07-13T11:54:49;54239.50;;;-136.87
14666;BMP280;7420;53.574;10.040;2023-07-13T11:57:29;54241.53;;;-136.87
14666;BMP280;7420;53.574;10.040;2023-07-13T12:00:00;54243.59;;;-136.87
14666;BMP280;7420;53.574;10.040;2023-07-13T12:02:37;54237.44;;;-136.87
14666;BMP280;7420;53.574;10.040;2023-07-13T12:05:04;54241.53;;;-136.87
14666;BMP280;7420;53.574;10.040;2023-07-13T12:07:31;54243.59;;;-136.87
14666;BMP280;7420;53.574;10.040;2023-07-13T12:10:21;54241.53;;;-136.87
14666;BMP280;7420;53.574;10.040;2023-07-13T12:12:52;54237.44;;;-136.87
14666;BMP280;7420;53.574;10.040;2023-07-13T12:15:19;54241.53;;;-136.87
14666;BMP280;7420;53.574;10.040;2023-07-13T12:17:45;54243.59;;;-136.87
14666;BMP280;7420;53.574;10.040;2023-07-13T12:22:48;54227.25;;;-136.87
14666;BMP280;7420;53.574;10.040;2023-07-13T12:25:15;54229.28;;;-136.87
14666;BMP280;7420;53.574;10.040;2023-07-13T12:27:41;54229.28;;;-136.87
14666;BMP280;7420;53.574;10.040;2023-07-13T12:30:24;54225.19;;;-136.87
14666;BMP280;7420;53.574;10.040;2023-07-13T12:33:02;54229.28;;;-136.87
14666;BMP280;7420;53.574;10.040;2023-07-13T12:35:40;54227.25;;;-136.87
14666;BMP280;7420;53.574;10.040;2023-07-13T12:38:10;54227.25;;;-136.87
14666;BMP280;7420;53.574;10.040;2023-07-13T12:40:36;54225.19;;;-136.87
14666;BMP280;7420;53.574;10.040;2023-07-13T12:43:02;54227.25;;;-136.87
14666;BMP280;7420;53.574;10.040;2023-07-13T12:45:30;54229.28;;;-136.87
14666;BMP280;7420;53.574;10.040;2023-07-13T12:47:58;54227.25;;;-136.87
14666;BMP280;7420;53.574;10.040;2023-07-13T12:50:40;54233.38;;;-136.87
14666;BMP280;7420;53.574;10.040;2023-07-13T12:53:17;54227.25;;;-136.87
14666;BMP280;7420;53.574;10.040;2023-07-13T12:55:47;54225.19;;;-136.87
14666;BMP280;7420;53.574;10.040;2023-07-13T12:58:41;54229.28;;;-136.87
14666;BMP280;7420;53.574;10.040;2023-07-13T13:01:13;54227.25;;;-136.87
14666;BMP280;7420;53.574;10.040;2023-07-13T13:03:44;54227.25;;;-136.87
14666;BMP280;7420;53.574;10.040;2023-07-13T13:08:41;54229.28;;;-136.87
14666;BMP280;7420;53.574;10.040;2023-07-13T13:11:09;54229.28;;;-136.87
14666;BMP280;7420;53.574;10.040;2023-07-13T13:13:34;54229.28;;;-136.87
14666;BMP280;7420;53.574;10.040;2023-07-13T13:16:15;54225.19;;;-136.87
14666;BMP280;7420;53.574;10.040;2023-07-13T13:18:42;54229.28;;;-136.87
14666;BMP280;7420;53.574;10.040;2023-07-13T13:21:09;54229.28;;;-136.87
14666;BMP280;7420;53.574;10.040;2023-07-13T13:23:34;54225.19;;;-136.87
14666;BMP280;7420;53.574;10.040;2023-07-13T13:26:00;54229.28;;;-136.87
14666;BMP280;7420;53.574;10.040;2023-07-13T13:28:26;54225.19;;;-136.87
14666;BMP280;7420;53.574;10.040;2023-07-13T13:30:52;54227.25;;;-136.87
14666;BMP280;7420;53.574;10.040;2023-07-13T13:33:19;54227.25;;;-136.87
14666;BMP280;7420;53.574;10.040;2023-07-13T13:35:44;54227.25;;;-136.87
14666;BMP280;7420;53.574;10.040;2023-07-13T13:38:20;54225.19;;;-136.87
14666;BMP280;7420;53.574;10.040;2023-07-13T13:40:46;54227.25;;;-136.87
14666;BMP280;7420;53.574;10.040;2023-07-13T13:43:22;54229.28;;;-136.87
14666;BMP280;7420;53.574;10.040;2023-07-13T13:45:51;54227.25;;;-136.87
14666;BMP280;7420;53.574;10.040;2023-07-13T13:48:19;54229.28;;;-136.87
14666;BMP280;7420;53.574;10.040;2023-07-13T13:50:47;54229.28;;;-136.87
14666;BMP280;7420;53.574;10.040;2023-07-13T13:53:13;54227.25;;;-136.87
14666;BMP280;7420;53.574;10.040;2023-07-13T13:55:39;54227.25;;;-136.87
14666;BMP280;7420;53.574;10.040;2023-07-13T13:58:10;54227.25;;;-136.87
14666;BMP280;7420;53.574;10.040;2023-07-13T14:00:37;54229.28;;;-136.87
14666;BMP280;7420;53.574;10.040;2023-07-13T14:03:03;54225.19;;;-136.87
14666;BMP280;7420;53.574;10.040;2023-07-13T14:05:28;54227.25;;;-136.87
14666;BMP280;7420;53.574;10.040;2023-07-13T14:10:41;54229.28;;;-136.87
14666;BMP280;7420;53.574;10.040;2023-07-13T14:13:17;54227.25;;;-136.87
14666;BMP280;7420;53.574;10.040;2023-07-13T14:15:44;54227.25;;;-136.87
14666;BMP280;7420;53.574;10.040;2023-07-13T14:18:10;54227.25;;;-136.87
14666;BMP280;7420;53.574;10.040;2023-07-13T14:20:35;54225.19;;;-136.87
14666;BMP280;7420;53.574;10.040;2023-07-13T14:23:01;54225.19;;;-136.87
14666;BMP280;7420;53.574;10.040;2023-07-13T14:25:26;54225.19;;;-136.87
14666;BMP280;7420;53.574;10.040;2023-07-13T14:27:56;54225.19;;;-136.87
14666;BMP280;7420;53.574;10.040;2023-07-13T14:30:24;54229.28;;;-136.87
14666;BMP280;7420;53.574;10.040;2023-07-13T14:32:49;54227.25;;;-136.87
14666;BMP280;7420;53.574;10.040;2023-07-13T14:35:17;54225.19;;;-136.87